createdAt,value
2023-05-01T00:01:30.654Z,3.30
2023-05-01T00:03:57.324Z,2.38
2023-05-01T00:06:24.164Z,3.67
2023-05-01T00:08:50.692Z,3.17
2023-05-01T00:11:17.386Z,3.90
2023-05-01T00:13:43.845Z,3.38
2023-05-01T00:16:11.476Z,3.03
2023-05-01T00:18:38.631Z,3.08
2023-05-01T00:21:05.537Z,3.03
2023-05-01T00:23:32.183Z,2.85
2023-05-01T00:25:58.711Z,2.95
2023-05-01T00:28:25.264Z,2.88
2023-05-01T00:30:52.224Z,2.72
2023-05-01T00:33:18.971Z,2.57
2023-05-01T00:35:46.249Z,3.60
2023-05-01T00:38:12.980Z,4.13
2023-05-01T00:40:43.829Z,3.65
2023-05-01T00:43:11.999Z,2.92
2023-05-01T00:45:39.951Z,2.30
2023-05-01T00:48:06.717Z,1.88
2023-05-01T00:50:33.389Z,3.70
2023-05-01T00:53:00.296Z,3.42
2023-05-01T00:55:27.117Z,3.42
2023-05-01T00:57:55.374Z,5.27
2023-05-01T01:00:24.495Z,3.75
2023-05-01T01:02:52.122Z,2.67
2023-05-01T01:05:21.829Z,2.55
2023-05-01T01:07:58.165Z,3.67
2023-05-01T01:10:35.450Z,2.60
2023-05-01T01:13:11.983Z,2.97
2023-05-01T01:15:50.767Z,3.08
2023-05-01T01:18:27.838Z,2.63
2023-05-01T01:21:18.927Z,3.00
2023-05-01T01:24:22.092Z,2.77
2023-05-01T01:27:07.115Z,4.55
2023-05-01T01:29:56.506Z,1.88
2023-05-01T01:32:53.869Z,2.50
2023-05-01T01:35:24.449Z,3.78
2023-05-01T01:38:07.559Z,3.70
2023-05-01T01:40:59.819Z,6.75
2023-05-01T01:43:27.481Z,4.45
2023-05-01T01:45:59.468Z,2.78
2023-05-01T01:48:31.784Z,3.33
2023-05-01T01:50:59.506Z,2.83
2023-05-01T01:53:28.495Z,2.53
2023-05-01T01:55:58.182Z,2.80
2023-05-01T01:58:26.819Z,4.03
2023-05-01T02:00:55.385Z,4.75
2023-05-01T02:03:24.262Z,3.70
2023-05-01T02:05:53.844Z,4.72
2023-05-01T02:08:21.344Z,4.65
2023-05-01T02:10:50.482Z,2.22
2023-05-01T02:13:18.348Z,4.05
2023-05-01T02:15:45.889Z,3.20
2023-05-01T02:18:13.989Z,2.63
2023-05-01T02:20:42.755Z,5.80
2023-05-01T02:23:10.068Z,2.60
2023-05-01T02:25:39.356Z,3.00
2023-05-01T02:28:13.549Z,3.47
2023-05-01T02:30:40.326Z,4.03
2023-05-01T02:33:08.520Z,4.13
2023-05-01T02:35:44.021Z,7.40
2023-05-01T02:38:12.803Z,2.67
2023-05-01T02:40:39.879Z,4.03
2023-05-01T02:43:10.736Z,3.83
2023-05-01T02:45:41.494Z,3.95
2023-05-01T02:48:10.973Z,3.50
2023-05-01T02:50:40.914Z,4.45
2023-05-01T02:53:08.395Z,3.37
2023-05-01T02:55:35.893Z,2.67
2023-05-01T02:58:02.485Z,5.00
2023-05-01T03:00:29.955Z,5.13
2023-05-01T03:02:56.625Z,3.53
2023-05-01T03:05:23.169Z,3.80
2023-05-01T03:07:51.239Z,4.72
2023-05-01T03:10:17.827Z,3.15
2023-05-01T03:12:44.414Z,2.83
2023-05-01T03:15:12.632Z,2.75
2023-05-01T03:17:39.694Z,4.17
2023-05-01T03:20:07.173Z,2.75
2023-05-01T03:22:33.720Z,4.88
2023-05-01T03:25:00.679Z,4.10
2023-05-01T03:27:27.539Z,4.68
2023-05-01T03:29:54.246Z,3.33
2023-05-01T03:32:21.017Z,3.05
2023-05-01T03:34:47.767Z,3.38
2023-05-01T03:37:15.143Z,3.53
2023-05-01T03:39:41.873Z,2.65
2023-05-01T03:42:08.345Z,4.13
2023-05-01T03:44:34.854Z,3.10
2023-05-01T03:47:01.837Z,4.55
2023-05-01T03:49:28.846Z,2.85
2023-05-01T03:51:55.342Z,3.85
2023-05-01T03:54:21.900Z,2.90
2023-05-01T03:56:48.375Z,6.90
2023-05-01T03:59:15.023Z,4.10
2023-05-01T04:01:41.621Z,3.85
2023-05-01T04:04:08.289Z,5.38
2023-05-01T04:06:35.323Z,3.90
2023-05-01T04:09:02.612Z,5.18
2023-05-01T04:11:29.115Z,7.22
2023-05-01T04:13:55.582Z,3.83
2023-05-01T04:16:22.158Z,3.75
2023-05-01T04:18:48.718Z,3.57
2023-05-01T04:21:17.674Z,5.07
2023-05-01T04:23:44.738Z,4.25
2023-05-01T04:26:11.221Z,6.55
2023-05-01T04:28:37.995Z,2.70
2023-05-01T04:31:04.574Z,2.97
2023-05-01T04:33:31.050Z,3.40
2023-05-01T04:35:57.549Z,3.70
2023-05-01T04:38:24.007Z,3.80
2023-05-01T04:40:50.677Z,5.05
2023-05-01T04:43:17.286Z,3.80
2023-05-01T04:45:43.739Z,3.28
2023-05-01T04:48:10.301Z,4.78
2023-05-01T04:50:37.649Z,4.18
2023-05-01T04:53:04.141Z,4.05
2023-05-01T04:55:31.229Z,4.47
2023-05-01T04:57:57.829Z,5.78
2023-05-01T05:00:24.392Z,5.57
2023-05-01T05:02:51.173Z,5.32
2023-05-01T05:05:17.696Z,6.07
2023-05-01T05:07:44.211Z,5.47
2023-05-01T05:10:10.805Z,4.78
2023-05-01T05:12:37.288Z,6.20
2023-05-01T05:15:03.946Z,4.50
2023-05-01T05:17:30.664Z,5.35
2023-05-01T05:19:57.382Z,5.73
2023-05-01T05:22:25.986Z,4.55
2023-05-01T05:24:59.994Z,6.63
2023-05-01T05:27:26.759Z,4.32
2023-05-01T05:29:53.369Z,8.07
2023-05-01T05:32:20.175Z,5.30
2023-05-01T05:34:47.458Z,4.22
2023-05-01T05:37:13.959Z,5.68
2023-05-01T05:39:40.502Z,5.45
2023-05-01T05:42:07.057Z,3.92
2023-05-01T05:44:35.988Z,7.70
2023-05-01T05:47:02.534Z,4.15
2023-05-01T05:49:29.143Z,7.93
2023-05-01T05:51:56.160Z,4.78
2023-05-01T05:54:22.685Z,7.80
2023-05-01T05:56:49.129Z,4.27
2023-05-01T05:59:17.391Z,5.57
2023-05-01T06:01:44.318Z,6.43
2023-05-01T06:04:11.922Z,5.97
2023-05-01T06:06:39.210Z,6.28
2023-05-01T06:09:08.232Z,5.27
2023-05-01T06:11:34.686Z,6.72
2023-05-01T06:14:02.775Z,7.72
2023-05-01T06:16:29.681Z,5.03
2023-05-01T06:18:56.431Z,5.05
2023-05-01T06:21:22.991Z,6.30
2023-05-01T06:23:49.461Z,7.85
2023-05-01T06:26:15.939Z,6.20
2023-05-01T06:28:42.425Z,6.32
2023-05-01T06:31:08.992Z,4.50
2023-05-01T06:33:35.549Z,6.90
2023-05-01T06:36:02.420Z,5.40
2023-05-01T06:38:28.980Z,6.55
2023-05-01T06:40:55.700Z,5.75
2023-05-01T06:43:22.218Z,4.80
2023-05-01T06:45:48.923Z,7.63
2023-05-01T06:48:15.495Z,6.88
2023-05-01T06:50:42.075Z,7.22
2023-05-01T06:53:08.582Z,7.93
2023-05-01T06:55:35.951Z,9.07
2023-05-01T06:58:04.856Z,8.68
2023-05-01T07:00:36.623Z,4.60
2023-05-01T07:03:04.094Z,7.30
2023-05-01T07:05:30.582Z,6.85
2023-05-01T07:08:01.331Z,14.45
2023-05-01T07:10:29.207Z,6.40
2023-05-01T07:12:55.696Z,9.35
2023-05-01T07:15:22.368Z,6.43
2023-05-01T07:17:50.446Z,6.18
2023-05-01T07:20:17.107Z,7.45
2023-05-01T07:22:44.228Z,7.60
2023-05-01T07:25:10.803Z,5.78
2023-05-01T07:27:37.315Z,5.32
2023-05-01T07:30:05.242Z,7.03
2023-05-01T07:32:33.128Z,6.60
2023-05-01T07:35:00.000Z,13.05
2023-05-01T07:37:27.071Z,6.90
2023-05-01T07:39:53.604Z,5.63
2023-05-01T07:42:20.152Z,9.27
2023-05-01T07:44:46.865Z,8.48
2023-05-01T07:47:13.525Z,5.35
2023-05-01T07:49:40.166Z,7.87
2023-05-01T07:52:09.706Z,8.25
2023-05-01T07:54:36.429Z,5.22
2023-05-01T07:57:03.674Z,6.13
2023-05-01T07:59:30.337Z,7.32
2023-05-01T08:01:56.975Z,8.00
2023-05-01T08:04:23.552Z,8.10
2023-05-01T08:06:51.533Z,7.57
2023-05-01T08:09:18.095Z,6.00
2023-05-01T08:11:44.620Z,8.05
2023-05-01T08:14:11.373Z,8.77
2023-05-01T08:16:38.173Z,7.32
2023-05-01T08:19:04.712Z,7.22
2023-05-01T08:21:31.381Z,8.95
2023-05-01T08:23:57.820Z,10.40
2023-05-01T08:26:24.329Z,6.90
2023-05-01T08:28:51.081Z,6.80
2023-05-01T08:31:19.302Z,5.47
2023-05-01T08:33:45.906Z,5.55
2023-05-01T08:36:12.624Z,6.70
2023-05-01T08:38:39.123Z,7.23
2023-05-01T08:41:06.180Z,6.28
2023-05-01T08:43:33.123Z,10.15
2023-05-01T08:46:04.906Z,9.98
2023-05-01T08:48:35.317Z,6.55
2023-05-01T08:51:03.566Z,7.67
2023-05-01T08:53:33.292Z,5.05
2023-05-01T08:56:00.578Z,9.50
2023-05-01T08:58:28.068Z,6.13
2023-05-01T09:00:57.488Z,6.55
2023-05-01T09:03:25.171Z,8.93
2023-05-01T09:05:53.425Z,7.35
2023-05-01T09:08:20.859Z,6.90
2023-05-01T09:10:49.422Z,8.43
2023-05-01T09:13:16.129Z,7.47
2023-05-01T09:15:42.676Z,5.97
2023-05-01T09:18:09.465Z,9.50
2023-05-01T09:20:37.921Z,8.65
2023-05-01T09:23:05.077Z,6.85
2023-05-01T09:25:31.543Z,6.57
2023-05-01T09:27:58.166Z,9.20
2023-05-01T09:30:35.392Z,4.72
2023-05-01T09:33:06.753Z,6.03
2023-05-01T09:35:47.863Z,7.38
2023-05-01T09:38:21.583Z,5.78
2023-05-01T09:40:48.614Z,6.87
2023-05-01T09:43:25.650Z,7.97
2023-05-01T09:46:10.483Z,6.05
2023-05-01T09:48:38.013Z,5.45
2023-05-01T09:51:20.696Z,9.00
2023-05-01T09:53:47.166Z,6.67
2023-05-01T09:56:14.867Z,6.53
2023-05-01T09:58:41.480Z,7.30
2023-05-01T10:01:08.645Z,8.10
2023-05-01T10:03:35.511Z,5.03
2023-05-01T10:06:03.887Z,8.53
2023-05-01T10:08:46.915Z,7.03
2023-05-01T10:11:13.538Z,6.47
2023-05-01T10:13:40.462Z,5.70
2023-05-01T10:16:08.526Z,8.70
2023-05-01T10:18:35.720Z,8.13
2023-05-01T10:21:03.532Z,6.78
2023-05-01T10:23:30.032Z,7.75
2023-05-01T10:25:58.595Z,8.32
2023-05-01T10:28:28.828Z,7.10
2023-05-01T10:30:57.493Z,6.20
2023-05-01T10:33:25.234Z,4.90
2023-05-01T10:36:00.789Z,9.90
2023-05-01T10:38:37.669Z,6.68
2023-05-01T10:41:06.228Z,6.10
2023-05-01T10:43:32.915Z,6.50
2023-05-01T10:46:09.238Z,4.82
2023-05-01T10:48:42.282Z,6.47
2023-05-01T10:51:15.647Z,5.88
2023-05-01T10:53:43.707Z,6.50
2023-05-01T10:56:26.473Z,9.97
2023-05-01T10:58:52.920Z,7.70
2023-05-01T11:01:29.471Z,5.10
2023-05-01T11:03:56.979Z,5.50
2023-05-01T11:06:24.157Z,6.22
2023-05-01T11:08:50.847Z,4.30
2023-05-01T11:11:20.071Z,6.03
2023-05-01T11:14:05.980Z,6.97
2023-05-01T11:16:42.112Z,3.47
2023-05-01T11:19:11.945Z,5.75
2023-05-01T11:21:40.660Z,7.23
2023-05-01T11:24:08.037Z,6.10
2023-05-01T11:26:41.732Z,6.00
2023-05-01T11:29:10.583Z,4.95
2023-05-01T11:31:38.174Z,4.35
2023-05-01T11:34:07.001Z,7.63
2023-05-01T11:36:52.392Z,4.50
2023-05-01T11:39:19.505Z,4.15
2023-05-01T11:41:46.968Z,5.13
2023-05-01T11:44:17.617Z,4.70
2023-05-01T11:46:44.523Z,3.70
2023-05-01T11:49:11.270Z,4.05
2023-05-01T11:51:37.846Z,3.60
2023-05-01T11:54:07.326Z,3.50
2023-05-01T11:56:35.397Z,7.07
2023-05-01T11:59:16.832Z,4.27
2023-05-01T12:01:47.037Z,5.13
2023-05-01T12:04:24.269Z,4.43
2023-05-01T12:06:51.270Z,5.47
2023-05-01T12:09:20.285Z,4.93
2023-05-01T12:11:52.399Z,5.13
2023-05-01T12:14:21.647Z,6.18
2023-05-01T12:16:48.600Z,7.05
2023-05-01T12:19:15.818Z,6.65
2023-05-01T12:21:42.554Z,6.63
2023-05-01T12:24:10.465Z,6.43
2023-05-01T12:26:37.808Z,5.47
2023-05-01T12:29:06.714Z,8.27
2023-05-01T12:31:33.991Z,6.40
2023-05-01T12:34:07.569Z,6.88
2023-05-01T12:36:36.078Z,11.03
2023-05-01T12:39:07.670Z,6.72
2023-05-01T12:41:36.709Z,8.50
2023-05-01T12:44:16.786Z,6.93
2023-05-01T12:46:44.667Z,7.45
2023-05-01T12:49:21.072Z,6.57
2023-05-01T12:51:52.203Z,9.60
2023-05-01T12:54:22.861Z,9.80
2023-05-01T12:56:55.005Z,7.88
2023-05-01T12:59:26.299Z,10.10
2023-05-01T13:02:07.447Z,8.37
2023-05-01T13:04:35.173Z,8.15
2023-05-01T13:07:02.651Z,5.97
2023-05-01T13:09:32.546Z,8.13
2023-05-01T13:12:05.901Z,7.60
2023-05-01T13:14:43.350Z,7.53
2023-05-01T13:17:11.767Z,48.97
2023-05-01T13:19:39.530Z,47.92
2023-05-01T13:22:06.536Z,5.18
2023-05-01T13:24:40.990Z,5.43
2023-05-01T13:27:11.842Z,5.03
2023-05-01T13:29:39.612Z,7.40
2023-05-01T13:32:10.036Z,8.45
2023-05-01T13:34:37.719Z,7.82
2023-05-01T13:37:04.147Z,9.40
2023-05-01T13:39:30.722Z,10.53
2023-05-01T13:41:57.156Z,4.88
2023-05-01T13:44:23.657Z,6.28
2023-05-01T13:46:50.355Z,8.45
2023-05-01T13:49:22.306Z,9.32
2023-05-01T13:51:48.894Z,7.73
2023-05-01T13:54:15.696Z,5.20
2023-05-01T13:56:42.271Z,4.72
2023-05-01T13:59:09.338Z,6.45
2023-05-01T14:01:46.254Z,24.35
2023-05-01T14:04:18.580Z,6.70
2023-05-01T14:06:47.057Z,10.77
2023-05-01T14:09:17.337Z,4.70
2023-05-01T14:11:46.805Z,5.85
2023-05-01T14:14:18.251Z,8.40
2023-05-01T14:16:49.147Z,8.07
2023-05-01T14:19:20.112Z,5.97
2023-05-01T14:21:47.017Z,4.85
2023-05-01T14:24:17.823Z,9.05
2023-05-01T14:26:47.780Z,4.88
2023-05-01T14:29:22.945Z,4.97
2023-05-01T14:31:49.581Z,4.22
2023-05-01T14:34:18.027Z,6.60
2023-05-01T14:36:44.560Z,4.13
2023-05-01T14:39:11.080Z,5.00
2023-05-01T14:41:42.300Z,5.57
2023-05-01T14:44:39.393Z,4.43
2023-05-01T14:47:09.487Z,7.82
2023-05-01T14:49:36.056Z,73.65
2023-05-01T14:52:02.726Z,22.98
2023-05-01T14:54:33.169Z,4.67
2023-05-01T14:57:03.756Z,4.80
2023-05-01T14:59:30.302Z,3.75
2023-05-01T15:01:57.097Z,7.72
2023-05-01T15:04:24.341Z,4.97
2023-05-01T15:06:50.934Z,5.80
2023-05-01T15:09:17.395Z,3.72
2023-05-01T15:11:43.840Z,7.40
2023-05-01T15:14:10.328Z,6.55
2023-05-01T15:16:37.446Z,5.35
2023-05-01T15:19:03.936Z,4.90
2023-05-01T15:21:31.651Z,6.60
2023-05-01T15:23:58.157Z,6.97
2023-05-01T15:26:24.757Z,7.47
2023-05-01T15:28:51.333Z,5.75
2023-05-01T15:31:19.314Z,7.43
2023-05-01T15:33:46.297Z,6.63
2023-05-01T15:36:13.259Z,6.78
2023-05-01T15:38:39.721Z,7.43
2023-05-01T15:41:06.172Z,6.05
2023-05-01T15:43:32.653Z,4.37
2023-05-01T15:45:59.835Z,7.20
2023-05-01T15:48:26.809Z,8.13
2023-05-01T15:50:53.278Z,7.38
2023-05-01T15:53:21.093Z,7.10
2023-05-01T15:55:47.588Z,6.43
2023-05-01T15:58:16.711Z,8.40
2023-05-01T16:00:47.058Z,6.10
2023-05-01T16:03:14.749Z,10.73
2023-05-01T16:05:45.665Z,7.05
2023-05-01T16:08:12.860Z,7.53
2023-05-01T16:10:40.582Z,6.55
2023-05-01T16:13:07.446Z,7.53
2023-05-01T16:15:34.447Z,8.68
2023-05-01T16:18:04.017Z,6.97
2023-05-01T16:20:35.579Z,8.27
2023-05-01T16:23:02.384Z,7.15
2023-05-01T16:25:28.932Z,6.63
2023-05-01T16:27:55.568Z,7.88
2023-05-01T16:30:24.600Z,7.95
2023-05-01T16:32:51.119Z,6.83
2023-05-01T16:35:18.343Z,7.75
2023-05-01T16:37:45.102Z,8.98
2023-05-01T16:40:16.841Z,7.97
2023-05-01T16:42:49.274Z,11.45
2023-05-01T16:45:15.898Z,8.00
2023-05-01T16:47:42.419Z,11.93
2023-05-01T16:50:09.970Z,9.30
2023-05-01T16:52:36.679Z,11.32
2023-05-01T16:55:03.716Z,10.63
2023-05-01T16:57:30.274Z,10.03
2023-05-01T16:59:56.908Z,11.70
2023-05-01T17:02:23.509Z,11.15
2023-05-01T17:04:50.067Z,10.40
2023-05-01T17:07:16.720Z,12.82
2023-05-01T17:09:43.219Z,10.77
2023-05-01T17:12:09.986Z,11.32
2023-05-01T17:14:36.456Z,10.27
2023-05-01T17:17:03.634Z,10.63
2023-05-01T17:19:31.581Z,9.73
2023-05-01T17:21:58.415Z,11.20
2023-05-01T17:24:25.750Z,11.55
2023-05-01T17:26:52.579Z,10.32
2023-05-01T17:29:19.043Z,10.45
2023-05-01T17:31:45.584Z,10.25
2023-05-01T17:34:12.063Z,9.97
2023-05-01T17:36:38.546Z,9.05
2023-05-01T17:39:05.135Z,9.75
2023-05-01T17:41:31.638Z,9.15
2023-05-01T17:43:58.143Z,9.45
2023-05-01T17:46:24.877Z,10.83
2023-05-01T17:48:51.438Z,10.65
2023-05-01T17:51:18.136Z,9.65
2023-05-01T17:53:44.623Z,10.57
2023-05-01T17:56:11.345Z,10.75
2023-05-01T17:58:38.052Z,11.83
2023-05-01T18:01:04.981Z,12.18
2023-05-01T18:03:32.747Z,12.82
2023-05-01T18:06:00.994Z,11.88
2023-05-01T18:08:27.575Z,13.82
2023-05-01T18:10:54.033Z,15.23
2023-05-01T18:13:27.541Z,13.57
2023-05-01T18:15:57.231Z,14.20
2023-05-01T18:18:23.975Z,16.10
2023-05-01T18:20:50.581Z,13.95
2023-05-01T18:23:20.174Z,15.00
2023-05-01T18:25:46.677Z,14.02
2023-05-01T18:28:13.685Z,14.98
2023-05-01T18:30:40.130Z,17.50
2023-05-01T18:33:06.698Z,14.73
2023-05-01T18:35:33.573Z,16.90
2023-05-01T18:38:00.028Z,16.30
2023-05-01T18:40:27.230Z,16.23
2023-05-01T18:42:53.812Z,15.45
2023-05-01T18:45:20.314Z,16.25
2023-05-01T18:47:46.939Z,17.80
2023-05-01T18:50:13.656Z,15.82
2023-05-01T18:52:41.740Z,16.05
2023-05-01T18:55:11.291Z,20.23
2023-05-01T18:57:37.958Z,17.35
2023-05-01T19:00:05.807Z,18.27
2023-05-01T19:02:32.321Z,19.85
2023-05-01T19:04:58.963Z,20.92
2023-05-01T19:07:26.514Z,19.73
2023-05-01T19:09:53.174Z,20.90
2023-05-01T19:12:19.630Z,20.03
2023-05-01T19:14:46.248Z,20.58
2023-05-01T19:17:12.704Z,23.00
2023-05-01T19:19:39.184Z,23.17
2023-05-01T19:22:06.326Z,22.63
2023-05-01T19:24:32.907Z,19.80
2023-05-01T19:26:59.466Z,21.67
2023-05-01T19:29:26.106Z,18.55
2023-05-01T19:31:52.684Z,17.40
2023-05-01T19:34:20.278Z,19.42
2023-05-01T19:36:46.822Z,21.05
2023-05-01T19:39:13.353Z,20.65
2023-05-01T19:41:39.856Z,17.98
2023-05-01T19:44:06.665Z,20.20
2023-05-01T19:46:33.230Z,21.02
2023-05-01T19:48:59.725Z,19.55
2023-05-01T19:51:26.575Z,18.85
2023-05-01T19:53:53.116Z,20.70
2023-05-01T19:56:19.588Z,20.55
2023-05-01T19:58:46.340Z,21.58
2023-05-01T20:01:13.182Z,21.02
2023-05-01T20:03:39.889Z,20.17
2023-05-01T20:06:07.514Z,19.58
2023-05-01T20:08:34.112Z,21.88
2023-05-01T20:11:01.761Z,24.95
2023-05-01T20:13:28.397Z,25.92
2023-05-01T20:15:55.320Z,25.45
2023-05-01T20:18:22.166Z,26.63
2023-05-01T20:20:48.759Z,27.50
2023-05-01T20:23:17.314Z,25.50
2023-05-01T20:25:43.888Z,24.95
2023-05-01T20:28:12.938Z,27.40
2023-05-01T20:30:41.081Z,29.73
2023-05-01T20:33:10.627Z,25.60
2023-05-01T20:35:37.643Z,26.25
2023-05-01T20:38:07.162Z,27.23
2023-05-01T20:40:33.824Z,28.10
2023-05-01T20:43:00.724Z,26.50
2023-05-01T20:45:29.073Z,25.60
2023-05-01T20:47:56.244Z,26.02
2023-05-01T20:50:23.213Z,29.30
2023-05-01T20:52:49.993Z,25.38
2023-05-01T20:55:16.578Z,29.83
2023-05-01T20:57:43.032Z,29.42
2023-05-01T21:00:10.088Z,32.00
2023-05-01T21:02:41.333Z,31.20
2023-05-01T21:05:10.278Z,31.15
2023-05-01T21:07:38.119Z,33.33
2023-05-01T21:10:10.314Z,34.08
2023-05-01T21:12:37.667Z,33.17
2023-05-01T21:15:04.779Z,33.63
2023-05-01T21:17:33.584Z,34.42
2023-05-01T21:20:00.432Z,35.08
2023-05-01T21:22:27.761Z,34.78
2023-05-01T21:24:56.695Z,30.50
2023-05-01T21:27:24.664Z,34.08
2023-05-01T21:30:02.332Z,30.00
2023-05-01T21:32:32.548Z,30.83
2023-05-01T21:35:02.646Z,30.88
2023-05-01T21:37:29.559Z,29.35
2023-05-01T21:39:59.546Z,28.30
2023-05-01T21:42:31.202Z,25.60
2023-05-01T21:44:59.308Z,27.35
2023-05-01T21:47:26.347Z,29.88
2023-05-01T21:49:56.864Z,30.10
2023-05-01T21:52:23.501Z,28.75
2023-05-01T21:54:50.166Z,29.10
2023-05-01T21:57:16.629Z,27.98
2023-05-01T21:59:45.011Z,27.35
2023-05-01T22:02:12.227Z,21.75
2023-05-01T22:04:38.931Z,21.17
2023-05-01T22:07:06.164Z,24.20
2023-05-01T22:09:33.257Z,19.73
2023-05-01T22:11:59.809Z,19.10
2023-05-01T22:14:33.603Z,19.77
2023-05-01T22:17:06.745Z,17.65
2023-05-01T22:19:33.343Z,18.38
2023-05-01T22:21:59.886Z,18.05
2023-05-01T22:24:26.399Z,15.55
2023-05-01T22:26:53.095Z,17.63
2023-05-01T22:29:19.536Z,15.25
2023-05-01T22:31:46.362Z,15.65
2023-05-01T22:34:12.938Z,15.52
2023-05-01T22:36:39.570Z,16.35
2023-05-01T22:39:06.092Z,15.85
2023-05-01T22:41:32.901Z,14.32
2023-05-01T22:43:59.365Z,15.85
2023-05-01T22:46:25.906Z,20.15
2023-05-01T22:48:52.547Z,18.67
2023-05-01T22:51:18.997Z,19.50
2023-05-01T22:53:45.470Z,14.15
2023-05-01T22:56:11.920Z,20.20
2023-05-01T22:58:38.566Z,17.25
2023-05-01T23:01:05.144Z,16.65
2023-05-01T23:03:33.184Z,14.18
2023-05-01T23:06:00.934Z,18.17
2023-05-01T23:08:28.197Z,16.42
2023-05-01T23:10:54.823Z,17.20
2023-05-01T23:13:23.388Z,18.33
2023-05-01T23:15:50.137Z,18.63
2023-05-01T23:18:30.034Z,16.30
2023-05-01T23:20:56.777Z,18.23
2023-05-01T23:23:29.660Z,19.38
2023-05-01T23:25:56.398Z,18.17
2023-05-01T23:28:24.924Z,19.80
2023-05-01T23:31:32.103Z,17.10
2023-05-01T23:34:02.176Z,23.58
2023-05-01T23:36:29.055Z,21.13
2023-05-01T23:38:55.796Z,21.25
2023-05-01T23:41:24.521Z,23.90
2023-05-01T23:43:51.202Z,24.63
2023-05-01T23:46:17.796Z,24.55
2023-05-01T23:48:44.395Z,24.90
2023-05-01T23:51:10.998Z,26.08
2023-05-01T23:53:37.484Z,27.20
2023-05-01T23:56:04.205Z,24.38
2023-05-01T23:58:30.673Z,27.25
